Time,TemperatureF,DewpointF,PressureIn,WindDirection,WindDirectionDegrees,WindSpeedMPH,WindSpeedGustMPH,Humidity,HourlyPrecipIn,Conditions,Clouds,dailyrainin,SoftwareType,DateUTC
2013-04-12 00:04:00,3.1,-4.0,30.40,SE,132,0.0,0.0,73,0.00,,,0.00,weatherlink.com 1.10,2013-04-12 08:04:00,
2013-04-12 00:19:00,2.6,-3.0,30.40,SE,132,0.0,0.0,76,0.00,,,0.00,weatherlink.com 1.10,2013-04-12 08:19:00,
2013-04-12 00:34:00,1.9,-4.0,30.40,SE,132,0.0,0.0,77,0.00,,,0.00,weatherlink.com 1.10,2013-04-12 08:34:00,
2013-04-12 00:49:00,1.3,-4.0,30.40,SE,132,0.0,0.0,78,0.00,,,0.00,weatherlink.com 1.10,2013-04-12 08:49:00,
2013-04-12 01:04:00,0.8,-4.0,30.40,SE,132,0.0,0.0,79,0.00,,,0.00,weatherlink.com 1.10,2013-04-12 09:04:00,
2013-04-12 01:19:00,-0.1,-5.0,30.41,SE,132,0.0,0.0,79,0.00,,,0.00,weatherlink.com 1.10,2013-04-12 09:19:00,
2013-04-12 01:34:00,-0.4,-5.0,30.41,SE,132,0.0,0.0,81,0.00,,,0.00,weatherlink.com 1.10,2013-04-12 09:34:00,
2013-04-12 01:49:00,-1.1,-6.0,30.41,SE,132,0.0,0.0,81,0.00,,,0.00,weatherlink.com 1.10,2013-04-12 09:49:00,
2013-04-12 02:04:00,-1.8,-6.0,30.42,SE,133,0.0,1.0,81,0.00,,,0.00,weatherlink.com 1.10,2013-04-12 10:04:00,
2013-04-12 02:19:00,-2.7,-7.0,30.42,SE,132,0.0,1.0,81,0.00,,,0.00,weatherlink.com 1.10,2013-04-12 10:19:00,
2013-04-12 02:35:00,-3.7,-8.0,30.42,SE,132,0.0,0.0,82,0.00,,,0.00,weatherlink.com 1.10,2013-04-12 10:35:00,
2013-04-12 02:50:00,-4.3,-8.0,30.42,SE,132,0.0,0.0,83,0.00,,,0.00,weatherlink.com 1.10,2013-04-12 10:50:00,
2013-04-12 03:05:00,-4.9,-9.0,30.43,SE,133,0.0,1.0,83,0.00,,,0.00,weatherlink.com 1.10,2013-04-12 11:05:00,
2013-04-12 03:20:00,-5.6,-10.0,30.43,East,96,0.0,1.0,83,0.00,,,0.00,weatherlink.com 1.10,2013-04-12 11:20:00,
2013-04-12 03:35:00,-6.1,-10.0,30.43,East,96,0.0,0.0,83,0.00,,,0.00,weatherlink.com 1.10,2013-04-12 11:35:00,
2013-04-12 03:50:00,-6.6,-10.0,30.44,East,96,0.0,0.0,83,0.00,,,0.00,weatherlink.com 1.10,2013-04-12 11:50:00,
2013-04-12 04:05:00,-7.2,-11.0,30.44,East,96,0.0,0.0,83,0.00,,,0.00,weatherlink.com 1.10,2013-04-12 12:05:00,
2013-04-12 04:20:00,-7.6,-11.0,30.44,East,96,0.0,0.0,83,0.00,,,0.00,weatherlink.com 1.10,2013-04-12 12:20:00,
2013-04-12 04:35:00,-7.9,-12.0,30.45,East,96,0.0,1.0,83,0.00,,,0.00,weatherlink.com 1.10,2013-04-12 12:35:00,
2013-04-12 04:50:00,-8.2,-12.0,30.45,East,96,0.0,1.0,83,0.00,,,0.00,weatherlink.com 1.10,2013-04-12 12:50:00,
2013-04-12 05:05:00,-7.9,-12.0,30.45,East,94,0.0,1.0,84,0.00,,,0.00,weatherlink.com 1.10,2013-04-12 13:05:00,
2013-04-12 05:20:00,-7.8,-12.0,30.45,East,82,0.0,1.0,83,0.00,,,0.00,weatherlink.com 1.10,2013-04-12 13:20:00,
2013-04-12 05:35:00,-8.4,-12.0,30.45,East,82,0.0,1.0,83,0.00,,,0.00,weatherlink.com 1.10,2013-04-12 13:35:00,
2013-04-12 05:50:00,-8.6,-12.0,30.45,East,82,0.0,0.0,83,0.00,,,0.00,weatherlink.com 1.10,2013-04-12 13:50:00,
2013-04-12 06:06:00,-8.7,-13.0,30.45,East,82,0.0,1.0,83,0.00,,,0.00,weatherlink.com 1.10,2013-04-12 14:06:00,
2013-04-12 06:21:00,-8.6,-12.0,30.45,East,82,0.0,1.0,83,0.00,,,0.00,weatherlink.com 1.10,2013-04-12 14:21:00,
2013-04-12 07:21:00,-10.1,-14.0,30.46,East,82,0.0,1.0,82,0.00,,,0.00,weatherlink.com 1.10,2013-04-12 15:21:00,
2013-04-12 07:51:00,-9.3,-13.0,30.46,East,82,0.0,1.0,83,0.00,,,0.00,weatherlink.com 1.10,2013-04-12 15:51:00,
2013-04-12 08:06:00,-8.6,-13.0,30.46,East,82,0.0,1.0,82,0.00,,,0.00,weatherlink.com 1.10,2013-04-12 16:06:00,
2013-04-12 08:21:00,-6.7,-11.0,30.47,East,90,0.0,1.0,83,0.00,,,0.00,weatherlink.com 1.10,2013-04-12 16:21:00,
2013-04-12 08:36:00,-5.4,-10.0,30.47,East,88,0.0,1.0,82,0.00,,,0.00,weatherlink.com 1.10,2013-04-12 16:36:00,
2013-04-12 08:51:00,-4.4,-9.0,30.47,East,92,0.0,1.0,80,0.00,,,0.00,weatherlink.com 1.10,2013-04-12 16:51:00,
2013-04-12 09:22:00,-2.0,-7.0,30.47,ENE,78,0.0,0.0,78,0.00,,,0.00,weatherlink.com 1.10,2013-04-12 17:22:00,
2013-04-12 09:37:00,-0.5,-6.0,30.47,NNE,29,0.0,0.0,77,0.00,,,0.00,weatherlink.com 1.10,2013-04-12 17:37:00,
2013-04-12 09:52:00,2.2,-4.0,30.47,SSE,149,0.0,2.0,74,0.00,,,0.00,weatherlink.com 1.10,2013-04-12 17:52:00,
2013-04-12 11:37:00,12.1,0.0,30.47,WSW,248,0.0,3.0,58,0.00,,,0.00,weatherlink.com 1.10,2013-04-12 19:37:00,
2013-04-12 11:52:00,14.2,1.0,30.47,SSE,158,2.0,3.0,56,0.00,,,0.00,weatherlink.com 1.10,2013-04-12 19:52:00,
2013-04-12 12:07:00,15.5,1.0,30.46,South,188,0.0,2.0,54,0.00,,,0.00,weatherlink.com 1.10,2013-04-12 20:07:00,
2013-04-12 12:22:00,16.9,1.0,30.46,ESE,105,0.0,3.0,50,0.00,,,0.00,weatherlink.com 1.10,2013-04-12 20:22:00,
2013-04-12 12:37:00,17.3,2.0,30.46,NE,44,0.0,2.0,50,0.00,,,0.00,weatherlink.com 1.10,2013-04-12 20:37:00,
2013-04-12 12:53:00,18.0,2.0,30.46,NNW,333,0.0,2.0,49,0.00,,,0.00,weatherlink.com 1.10,2013-04-12 20:53:00,
2013-04-12 13:08:00,19.0,3.0,30.45,SE,131,0.0,2.0,50,0.00,,,0.00,weatherlink.com 1.10,2013-04-12 21:08:00,
2013-04-12 13:23:00,18.3,2.0,30.45,SE,125,0.0,3.0,48,0.00,,,0.00,weatherlink.com 1.10,2013-04-12 21:23:00,
2013-04-12 13:38:00,19.6,2.0,30.45,ENE,70,0.0,3.0,47,0.00,,,0.00,weatherlink.com 1.10,2013-04-12 21:38:00,
2013-04-12 13:53:00,20.1,2.0,30.45,North,11,1.0,3.0,46,0.00,,,0.00,weatherlink.com 1.10,2013-04-12 21:53:00,
2013-04-12 14:08:00,21.2,3.0,30.44,East,95,1.0,3.0,45,0.00,,,0.00,weatherlink.com 1.10,2013-04-12 22:08:00,
2013-04-12 14:23:00,21.2,2.0,30.44,SW,236,0.0,6.0,44,0.00,,,0.00,weatherlink.com 1.10,2013-04-12 22:23:00,
2013-04-12 14:38:00,21.5,3.0,30.44,East,93,2.0,5.0,44,0.00,,,0.00,weatherlink.com 1.10,2013-04-12 22:38:00,
2013-04-12 14:53:00,21.5,2.0,30.44,SW,224,2.0,6.0,43,0.00,,,0.00,weatherlink.com 1.10,2013-04-12 22:53:00,
2013-04-12 15:08:00,22.3,3.0,30.43,South,188,0.0,3.0,44,0.00,,,0.00,weatherlink.com 1.10,2013-04-12 23:08:00,
2013-04-12 15:23:00,22.6,4.0,30.43,SW,231,0.0,3.0,45,0.00,,,0.00,weatherlink.com 1.10,2013-04-12 23:23:00,
2013-04-12 15:38:00,23.1,5.0,30.43,SE,146,2.0,2.0,46,0.00,,,0.00,weatherlink.com 1.10,2013-04-12 23:38:00,
2013-04-12 15:53:00,23.5,4.0,30.43,NE,43,2.0,5.0,44,0.00,,,0.00,weatherlink.com 1.10,2013-04-12 23:53:00,
2013-04-12 16:09:00,23.3,4.0,30.43,East,101,0.0,2.0,44,0.00,,,0.00,weatherlink.com 1.10,2013-04-13 00:09:00,
2013-04-12 16:24:00,23.2,4.0,30.42,SSE,152,0.0,5.0,44,0.00,,,0.00,weatherlink.com 1.10,2013-04-13 00:24:00,
2013-04-12 16:39:00,22.1,3.0,30.43,South,185,2.0,3.0,44,0.00,,,0.00,weatherlink.com 1.10,2013-04-13 00:39:00,
2013-04-12 16:54:00,22.3,3.0,30.42,ESE,122,0.0,3.0,43,0.00,,,0.00,weatherlink.com 1.10,2013-04-13 00:54:00,
2013-04-12 17:09:00,22.2,4.0,30.42,ESE,103,0.0,1.0,45,0.00,,,0.00,weatherlink.com 1.10,2013-04-13 01:09:00,
2013-04-12 17:24:00,21.9,3.0,30.42,NNW,336,1.0,2.0,45,0.00,,,0.00,weatherlink.com 1.10,2013-04-13 01:24:00,
2013-04-12 17:39:00,22.0,4.0,30.43,West,274,0.0,2.0,46,0.00,,,0.00,weatherlink.com 1.10,2013-04-13 01:39:00,
2013-04-12 17:54:00,21.9,4.0,30.42,West,276,1.0,3.0,47,0.00,,,0.00,weatherlink.com 1.10,2013-04-13 01:54:00,
2013-04-12 18:09:00,21.7,4.0,30.43,NW,314,0.0,3.0,46,0.00,,,0.00,weatherlink.com 1.10,2013-04-13 02:09:00,
2013-04-12 18:24:00,21.4,5.0,30.43,SW,217,0.0,2.0,49,0.00,,,0.00,weatherlink.com 1.10,2013-04-13 02:24:00,
2013-04-12 18:39:00,21.2,3.0,30.43,NW,308,0.0,5.0,45,0.00,,,0.00,weatherlink.com 1.10,2013-04-13 02:39:00,
2013-04-12 18:54:00,20.9,3.0,30.43,North,8,1.0,2.0,47,0.00,,,0.00,weatherlink.com 1.10,2013-04-13 02:54:00,
2013-04-12 19:24:00,20.4,3.0,30.43,NNW,344,1.0,3.0,46,0.00,,,0.00,weatherlink.com 1.10,2013-04-13 03:24:00,
2013-04-12 19:40:00,20.0,3.0,30.43,West,277,0.0,4.0,47,0.00,,,0.00,weatherlink.com 1.10,2013-04-13 03:40:00,
2013-04-12 19:55:00,19.6,2.0,30.43,NW,304,0.0,4.0,47,0.00,,,0.00,weatherlink.com 1.10,2013-04-13 03:55:00,
2013-04-12 20:10:00,19.5,2.0,30.44,NNW,338,0.0,2.0,47,0.00,,,0.00,weatherlink.com 1.10,2013-04-13 04:10:00,
2013-04-12 20:25:00,18.7,2.0,30.44,East,79,0.0,2.0,49,0.00,,,0.00,weatherlink.com 1.10,2013-04-13 04:25:00,
2013-04-12 20:40:00,18.0,3.0,30.45,West,281,0.0,3.0,51,0.00,,,0.00,weatherlink.com 1.10,2013-04-13 04:40:00,
2013-04-12 20:55:00,17.7,2.0,30.45,NW,322,0.0,2.0,50,0.00,,,0.00,weatherlink.com 1.10,2013-04-13 04:55:00,
2013-04-12 21:10:00,16.7,1.0,30.45,NW,322,0.0,1.0,51,0.00,,,0.00,weatherlink.com 1.10,2013-04-13 05:10:00,
2013-04-12 21:25:00,15.6,1.0,30.46,NW,322,0.0,0.0,52,0.00,,,0.00,weatherlink.com 1.10,2013-04-13 05:25:00,
2013-04-12 21:40:00,14.7,0.0,30.46,NW,322,0.0,0.0,53,0.00,,,0.00,weatherlink.com 1.10,2013-04-13 05:40:00,
2013-04-12 21:55:00,13.3,-1.0,30.46,NW,322,0.0,0.0,54,0.00,,,0.00,weatherlink.com 1.10,2013-04-13 05:55:00,
2013-04-12 22:10:00,12.2,-1.0,30.47,NW,322,0.0,0.0,57,0.00,,,0.00,weatherlink.com 1.10,2013-04-13 06:10:00,
2013-04-12 22:25:00,12.2,0.0,30.48,NW,322,0.0,1.0,58,0.00,,,0.00,weatherlink.com 1.10,2013-04-13 06:25:00,
2013-04-12 22:40:00,11.7,0.0,30.48,NW,321,0.0,0.0,60,0.00,,,0.00,weatherlink.com 1.10,2013-04-13 06:40:00,
2013-04-12 22:56:00,11.2,-1.0,30.48,NW,322,0.0,0.0,59,0.00,,,0.00,weatherlink.com 1.10,2013-04-13 06:56:00,
2013-04-12 23:11:00,10.4,-1.0,30.48,NW,322,0.0,1.0,61,0.00,,,0.00,weatherlink.com 1.10,2013-04-13 07:11:00,
2013-04-12 23:26:00,10.5,-1.0,30.49,NW,322,0.0,1.0,61,0.00,,,0.00,weatherlink.com 1.10,2013-04-13 07:26:00,
2013-04-12 23:41:00,11.1,0.0,30.49,NNE,15,0.0,1.0,60,0.00,,,0.00,weatherlink.com 1.10,2013-04-13 07:41:00,
2013-04-12 23:56:00,11.1,-1.0,30.49,NNE,15,0.0,1.0,59,0.00,,,0.00,weatherlink.com 1.10,2013-04-13 07:56:00,